createdAt,value
2022-08-26T00:02:20.717Z,10.45
2022-08-26T00:04:50.992Z,6.65
2022-08-26T00:07:20.709Z,5.80
2022-08-26T00:09:54.498Z,5.60
2022-08-26T00:12:27.895Z,5.75
2022-08-26T00:15:08.139Z,5.85
2022-08-26T00:17:40.394Z,5.53
2022-08-26T00:20:12.575Z,7.20
2022-08-26T00:25:17.969Z,7.38
2022-08-26T00:27:48.205Z,7.75
2022-08-26T00:30:22.910Z,5.82
2022-08-26T00:32:54.209Z,8.90
2022-08-26T00:35:25.263Z,6.05
2022-08-26T00:37:57.778Z,8.90
2022-08-26T00:40:32.540Z,5.70
2022-08-26T00:43:02.990Z,7.70
2022-08-26T00:45:45.177Z,6.30
2022-08-26T00:48:17.137Z,9.25
2022-08-26T00:50:53.143Z,7.18
2022-08-26T00:53:26.392Z,6.30
2022-08-26T00:56:03.716Z,6.30
2022-08-26T00:58:35.106Z,6.35
2022-08-26T01:01:05.220Z,5.80
2022-08-26T01:03:36.726Z,6.93
2022-08-26T01:06:12.497Z,8.30
2022-08-26T01:08:43.182Z,11.48
2022-08-26T01:11:16.288Z,8.63
2022-08-26T01:13:47.489Z,6.75
2022-08-26T01:16:18.661Z,7.95
2022-08-26T01:18:50.564Z,6.43
2022-08-26T01:21:26.170Z,7.85
2022-08-26T01:23:59.389Z,7.95
2022-08-26T01:26:31.261Z,8.45
2022-08-26T01:29:03.509Z,8.82
2022-08-26T01:31:39.079Z,12.35
2022-08-26T01:34:11.299Z,7.82
2022-08-26T01:36:41.346Z,12.50
2022-08-26T01:39:14.482Z,13.10
2022-08-26T01:41:44.291Z,8.57
2022-08-26T01:44:21.853Z,9.02
2022-08-26T01:46:52.956Z,12.05
2022-08-26T01:49:23.973Z,9.35
2022-08-26T01:51:58.359Z,10.68
2022-08-26T01:54:30.882Z,10.50
2022-08-26T01:57:00.539Z,10.63
2022-08-26T01:59:32.594Z,11.45
2022-08-26T02:02:02.514Z,11.43
2022-08-26T02:04:35.189Z,10.93
2022-08-26T02:07:07.340Z,9.50
2022-08-26T02:09:41.213Z,12.60
2022-08-26T02:12:12.183Z,12.93
2022-08-26T02:14:44.561Z,10.35
2022-08-26T02:17:15.349Z,12.40
2022-08-26T02:19:51.961Z,11.35
2022-08-26T02:22:24.697Z,15.23
2022-08-26T02:24:59.222Z,10.45
2022-08-26T02:27:32.836Z,14.82
2022-08-26T02:32:35.095Z,17.15
2022-08-26T02:35:05.150Z,11.70
2022-08-26T02:37:35.557Z,14.32
2022-08-26T02:40:10.239Z,13.27
2022-08-26T02:42:40.170Z,12.18
2022-08-26T02:45:13.368Z,11.48
2022-08-26T02:47:46.801Z,18.75
2022-08-26T02:50:16.680Z,13.48
2022-08-26T02:52:46.411Z,20.45
2022-08-26T02:55:19.668Z,13.73
2022-08-26T02:57:49.691Z,12.20
2022-08-26T03:00:19.933Z,12.25
2022-08-26T03:02:50.309Z,13.60
2022-08-26T03:05:22.137Z,13.23
2022-08-26T03:07:53.990Z,12.45
2022-08-26T03:10:26.556Z,12.25
2022-08-26T03:12:56.934Z,17.02
2022-08-26T03:15:27.771Z,12.65
2022-08-26T03:17:58.654Z,17.92
2022-08-26T03:20:29.095Z,14.77
2022-08-26T03:22:58.775Z,17.05
2022-08-26T03:25:31.301Z,13.48
2022-08-26T03:28:01.124Z,14.25
2022-08-26T03:30:45.039Z,17.35
2022-08-26T03:33:16.322Z,16.40
2022-08-26T03:35:47.881Z,14.10
2022-08-26T03:38:21.517Z,16.23
2022-08-26T03:40:56.318Z,14.60
2022-08-26T03:43:27.631Z,15.73
2022-08-26T03:45:57.314Z,14.00
2022-08-26T03:48:27.282Z,14.70
2022-08-26T03:50:56.981Z,17.30
2022-08-26T03:53:27.218Z,15.18
2022-08-26T03:56:00.216Z,12.50
2022-08-26T03:58:31.076Z,12.85
2022-08-26T04:01:00.972Z,15.50
2022-08-26T04:03:43.392Z,14.32
2022-08-26T04:06:13.333Z,15.55
2022-08-26T04:08:43.401Z,14.55
2022-08-26T04:11:19.586Z,18.95
2022-08-26T04:13:50.117Z,14.45
2022-08-26T04:16:21.117Z,18.63
2022-08-26T04:18:52.728Z,14.45
2022-08-26T04:21:22.677Z,14.32
2022-08-26T04:23:52.941Z,18.73
2022-08-26T04:26:26.130Z,13.60
2022-08-26T04:28:57.042Z,14.80
2022-08-26T04:31:26.760Z,15.10
2022-08-26T04:34:00.623Z,18.23
2022-08-26T04:36:30.324Z,17.75
2022-08-26T04:39:00.278Z,18.20
2022-08-26T04:41:33.116Z,18.77
2022-08-26T04:44:02.828Z,18.05
2022-08-26T04:46:32.899Z,15.98
2022-08-26T04:49:02.633Z,24.17
2022-08-26T04:51:33.402Z,21.42
2022-08-26T04:54:03.195Z,21.05
2022-08-26T04:56:40.418Z,19.50
2022-08-26T04:59:16.691Z,22.02
2022-08-26T05:01:48.890Z,26.65
2022-08-26T05:04:20.134Z,22.00
2022-08-26T05:06:49.921Z,22.90
2022-08-26T05:09:20.175Z,19.20
2022-08-26T05:11:52.592Z,23.17
2022-08-26T05:14:23.261Z,21.50
2022-08-26T05:16:54.037Z,31.55
2022-08-26T05:19:23.946Z,27.50
2022-08-26T05:21:54.239Z,35.40
2022-08-26T05:24:24.731Z,41.25
2022-08-26T05:26:57.293Z,39.05
2022-08-26T05:29:26.890Z,37.33
2022-08-26T05:31:56.503Z,39.78
2022-08-26T05:34:30.107Z,37.05
2022-08-26T05:37:00.378Z,33.05
2022-08-26T05:39:30.006Z,37.22
2022-08-26T05:42:04.137Z,41.88
2022-08-26T05:44:53.632Z,39.97
2022-08-26T05:47:23.367Z,34.78
2022-08-26T05:49:53.041Z,37.75
2022-08-26T05:52:25.878Z,39.42
2022-08-26T05:54:55.646Z,43.70
2022-08-26T05:57:27.895Z,40.67
2022-08-26T05:59:58.055Z,35.05
2022-08-26T06:02:28.524Z,33.33
2022-08-26T06:04:58.220Z,34.53
2022-08-26T06:07:47.869Z,34.60
2022-08-26T06:10:33.476Z,35.65
2022-08-26T06:13:11.549Z,35.17
2022-08-26T06:15:45.595Z,32.38
2022-08-26T06:18:16.855Z,33.28
2022-08-26T06:20:56.913Z,33.08
2022-08-26T06:23:40.510Z,34.72
2022-08-26T06:26:11.032Z,35.35
2022-08-26T06:28:45.537Z,32.78
2022-08-26T06:31:15.926Z,31.40
2022-08-26T06:33:46.253Z,29.73
2022-08-26T06:36:20.579Z,31.60
2022-08-26T06:38:51.349Z,32.70
2022-08-26T06:41:22.767Z,32.97
2022-08-26T06:43:55.091Z,30.92
2022-08-26T06:46:26.053Z,35.08
2022-08-26T06:48:58.187Z,38.67
2022-08-26T06:51:29.718Z,33.97
2022-08-26T06:54:02.016Z,38.67
2022-08-26T06:56:36.113Z,34.05
2022-08-26T06:59:08.970Z,39.05
2022-08-26T07:01:43.033Z,35.30
2022-08-26T07:04:15.536Z,34.55
2022-08-26T07:06:48.892Z,37.88
2022-08-26T07:09:19.520Z,41.90
2022-08-26T07:11:49.278Z,42.53
2022-08-26T07:14:22.090Z,40.83
2022-08-26T07:16:52.379Z,45.13
2022-08-26T07:19:31.210Z,38.05
2022-08-26T07:22:02.392Z,38.65
2022-08-26T07:24:35.144Z,36.95
2022-08-26T07:27:06.595Z,39.67
2022-08-26T07:29:39.710Z,36.78
2022-08-26T07:32:09.852Z,37.42
2022-08-26T07:34:40.172Z,35.83
2022-08-26T07:37:11.685Z,41.20
2022-08-26T07:39:43.240Z,39.78
2022-08-26T07:42:15.713Z,40.08
2022-08-26T07:44:50.751Z,41.00
2022-08-26T07:47:25.716Z,45.00
2022-08-26T07:49:57.413Z,42.95
2022-08-26T07:52:28.088Z,42.05
2022-08-26T07:54:58.455Z,42.33
2022-08-26T07:57:28.351Z,36.45
2022-08-26T08:00:00.693Z,38.80
2022-08-26T08:02:31.685Z,36.50
2022-08-26T08:05:01.799Z,34.13
2022-08-26T08:07:45.092Z,32.42
2022-08-26T08:10:17.040Z,31.52
2022-08-26T08:12:47.031Z,28.73
2022-08-26T08:15:21.847Z,27.10
2022-08-26T08:17:51.668Z,27.10
2022-08-26T08:20:23.023Z,26.15
2022-08-26T08:22:53.028Z,21.30
2022-08-26T08:25:24.166Z,24.05
2022-08-26T08:27:53.907Z,23.58
2022-08-26T08:30:26.622Z,31.35
2022-08-26T08:32:56.821Z,28.25
2022-08-26T08:35:27.561Z,34.38
2022-08-26T08:37:57.317Z,29.95
2022-08-26T08:40:29.177Z,30.25
2022-08-26T08:43:02.042Z,32.35
2022-08-26T08:45:37.110Z,34.90
2022-08-26T08:48:09.117Z,40.88
2022-08-26T08:50:45.855Z,42.92
2022-08-26T08:53:18.161Z,42.50
2022-08-26T08:55:54.742Z,46.25
2022-08-26T08:58:28.310Z,43.13
2022-08-26T09:01:04.718Z,50.80
2022-08-26T09:03:50.227Z,45.60
2022-08-26T09:06:20.546Z,51.00
2022-08-26T09:08:52.024Z,52.42
2022-08-26T09:11:23.181Z,55.33
2022-08-26T09:13:54.512Z,61.78
2022-08-26T09:16:31.286Z,62.08
2022-08-26T09:19:14.594Z,63.97
2022-08-26T09:21:53.342Z,69.40
2022-08-26T09:24:23.154Z,73.80
2022-08-26T09:26:59.243Z,69.88
2022-08-26T09:29:30.894Z,70.72
2022-08-26T09:35:01.369Z,61.80
2022-08-26T09:37:40.275Z,54.92
2022-08-26T09:40:22.481Z,54.75
2022-08-26T09:43:09.827Z,52.00
2022-08-26T09:45:41.448Z,46.75
2022-08-26T09:48:32.661Z,48.83
2022-08-26T09:51:09.831Z,51.38
2022-08-26T09:53:53.968Z,49.10
2022-08-26T09:56:28.554Z,46.50
2022-08-26T09:58:59.333Z,40.67
2022-08-26T10:01:33.452Z,37.25
2022-08-26T10:04:10.990Z,36.90
2022-08-26T10:06:46.561Z,36.40
2022-08-26T10:09:19.542Z,32.05
2022-08-26T10:11:52.007Z,24.75
2022-08-26T10:14:25.491Z,26.20
2022-08-26T10:16:58.068Z,22.55
2022-08-26T10:19:55.577Z,33.28
2022-08-26T10:22:26.970Z,27.92
2022-08-26T10:25:00.514Z,29.45
2022-08-26T10:27:37.558Z,33.13
2022-08-26T10:30:13.997Z,21.02
2022-08-26T10:32:48.121Z,23.63
2022-08-26T10:35:19.726Z,21.95
2022-08-26T10:37:56.466Z,16.08
2022-08-26T10:40:28.958Z,14.68
2022-08-26T10:43:02.003Z,18.73
2022-08-26T10:45:41.255Z,16.52
2022-08-26T10:48:14.921Z,20.52
2022-08-26T10:50:47.572Z,19.42
2022-08-26T10:53:24.941Z,15.63
2022-08-26T10:56:00.164Z,20.35
2022-08-26T10:58:44.599Z,21.67
2022-08-26T11:04:06.498Z,26.33
2022-08-26T11:06:37.169Z,22.80
2022-08-26T11:09:11.454Z,28.67
2022-08-26T11:11:48.253Z,24.30
2022-08-26T11:14:41.120Z,22.45
2022-08-26T11:17:53.331Z,24.30
2022-08-26T11:20:35.588Z,23.17
2022-08-26T11:23:37.614Z,25.25
2022-08-26T11:26:37.867Z,22.83
2022-08-26T11:29:13.907Z,22.85
2022-08-26T11:31:58.537Z,15.68
2022-08-26T11:34:55.042Z,17.40
2022-08-26T11:37:32.506Z,19.55
2022-08-26T11:40:04.141Z,19.40
2022-08-26T11:42:40.611Z,17.13
2022-08-26T11:45:20.877Z,14.13
2022-08-26T11:47:50.561Z,11.27
2022-08-26T11:50:23.410Z,19.73
2022-08-26T11:53:01.790Z,19.40
2022-08-26T11:55:32.692Z,19.10
2022-08-26T11:58:07.670Z,23.08
2022-08-26T12:00:53.213Z,26.95
2022-08-26T12:03:25.610Z,33.15
2022-08-26T12:05:57.336Z,31.08
2022-08-26T12:08:31.190Z,30.60
2022-08-26T12:11:06.996Z,32.08
2022-08-26T12:13:39.536Z,33.30
2022-08-26T12:16:09.746Z,29.63
2022-08-26T12:18:41.634Z,27.60
2022-08-26T12:21:16.844Z,32.20
2022-08-26T12:23:50.092Z,29.10
2022-08-26T12:26:25.743Z,28.40
2022-08-26T12:29:00.900Z,26.42
2022-08-26T12:31:33.953Z,24.02
2022-08-26T12:34:06.439Z,22.80
2022-08-26T12:36:49.649Z,25.95
2022-08-26T12:39:30.453Z,22.92
2022-08-26T12:42:01.293Z,16.27
2022-08-26T12:44:38.964Z,15.52
2022-08-26T12:47:11.980Z,17.08
2022-08-26T12:49:43.040Z,13.90
2022-08-26T12:52:30.067Z,14.35
2022-08-26T12:55:02.917Z,13.02
2022-08-26T12:57:35.217Z,13.65
2022-08-26T13:00:35.465Z,13.27
2022-08-26T13:03:05.426Z,13.38
2022-08-26T13:05:37.972Z,15.07
2022-08-26T13:08:18.690Z,11.90
2022-08-26T13:10:49.980Z,14.40
2022-08-26T13:13:19.671Z,15.82
2022-08-26T13:15:52.531Z,9.93
2022-08-26T13:18:22.200Z,11.70
2022-08-26T13:20:51.852Z,10.95
2022-08-26T13:23:22.039Z,9.18
2022-08-26T13:25:51.932Z,7.18
2022-08-26T13:28:21.935Z,9.13
2022-08-26T13:30:54.212Z,11.05
2022-08-26T13:33:23.909Z,9.05
2022-08-26T13:35:54.835Z,9.43
2022-08-26T13:38:33.752Z,8.02
2022-08-26T13:41:04.811Z,7.70
2022-08-26T13:43:35.666Z,10.65
2022-08-26T13:46:08.426Z,8.32
2022-08-26T13:48:38.277Z,7.55
2022-08-26T13:51:10.823Z,8.13
2022-08-26T13:53:41.546Z,12.00
2022-08-26T13:56:11.768Z,7.05
2022-08-26T13:58:41.458Z,6.25
2022-08-26T14:01:13.931Z,11.48
2022-08-26T14:03:43.948Z,7.28
2022-08-26T14:06:13.728Z,5.80
2022-08-26T14:08:44.126Z,5.97
2022-08-26T14:11:14.160Z,8.93
2022-08-26T14:13:43.829Z,10.77
2022-08-26T14:16:23.807Z,7.35
2022-08-26T14:18:53.452Z,10.35
2022-08-26T14:21:23.327Z,5.93
2022-08-26T14:23:52.965Z,7.85
2022-08-26T14:26:29.102Z,8.63
2022-08-26T14:28:59.795Z,6.85
2022-08-26T14:31:33.080Z,6.03
2022-08-26T14:34:04.641Z,5.03
2022-08-26T14:36:35.276Z,9.75
2022-08-26T14:39:07.043Z,5.28
2022-08-26T14:41:54.610Z,10.98
2022-08-26T14:44:26.512Z,5.35
2022-08-26T14:46:59.399Z,11.85
2022-08-26T14:49:31.211Z,10.70
2022-08-26T14:52:01.279Z,8.68
2022-08-26T14:54:29.519Z,7.88
2022-08-26T14:57:01.051Z,8.05
2022-08-26T14:59:32.279Z,9.43
2022-08-26T15:02:04.664Z,7.20
2022-08-26T15:04:34.716Z,6.90
2022-08-26T15:07:04.746Z,6.90
2022-08-26T15:09:37.394Z,7.13
2022-08-26T15:12:07.995Z,5.47
2022-08-26T15:14:37.654Z,8.77
2022-08-26T15:17:10.086Z,9.98
2022-08-26T15:19:39.749Z,8.07
2022-08-26T15:22:09.377Z,6.55
2022-08-26T15:24:39.096Z,7.20
2022-08-26T15:27:09.083Z,8.93
2022-08-26T15:29:39.080Z,8.55
2022-08-26T15:32:11.377Z,7.00
2022-08-26T15:34:41.027Z,6.60
2022-08-26T15:37:10.865Z,6.63
2022-08-26T15:39:41.054Z,6.13
2022-08-26T15:42:11.110Z,5.78
2022-08-26T15:44:40.752Z,7.63
2022-08-26T15:47:13.241Z,5.80
2022-08-26T15:49:42.891Z,7.32
2022-08-26T15:52:12.528Z,9.50
2022-08-26T15:54:42.292Z,10.00
2022-08-26T15:57:15.362Z,9.13
2022-08-26T15:59:46.281Z,8.40
2022-08-26T16:02:18.674Z,9.07
2022-08-26T16:04:48.304Z,7.22
2022-08-26T16:07:17.975Z,7.95
2022-08-26T16:09:49.056Z,12.32
2022-08-26T16:12:24.150Z,10.90
2022-08-26T16:14:54.070Z,10.02
2022-08-26T16:17:26.355Z,8.50
2022-08-26T16:19:56.278Z,9.15
2022-08-26T16:22:27.239Z,8.32
2022-08-26T16:24:59.628Z,11.18
2022-08-26T16:27:29.300Z,9.48
2022-08-26T16:29:58.931Z,8.63
2022-08-26T16:32:31.427Z,8.52
2022-08-26T16:35:01.585Z,6.05
2022-08-26T16:37:31.186Z,9.98
2022-08-26T16:40:00.906Z,8.90
2022-08-26T16:42:30.601Z,9.55
2022-08-26T16:45:00.268Z,9.70
2022-08-26T16:47:33.016Z,5.53
2022-08-26T16:50:02.949Z,7.68
2022-08-26T16:52:32.647Z,11.20
2022-08-26T16:55:02.522Z,8.68
2022-08-26T16:57:32.138Z,7.28
2022-08-26T17:00:01.828Z,4.30
2022-08-26T17:02:34.201Z,7.80
2022-08-26T17:05:03.860Z,9.88
2022-08-26T17:07:35.474Z,9.65
2022-08-26T17:10:05.138Z,6.50
2022-08-26T17:12:34.737Z,7.47
2022-08-26T17:15:04.570Z,4.68
2022-08-26T17:17:37.302Z,9.35
2022-08-26T17:20:12.645Z,5.68
2022-08-26T17:22:43.809Z,8.60
2022-08-26T17:25:15.025Z,7.40
2022-08-26T17:27:45.745Z,5.53
2022-08-26T17:30:17.260Z,9.27
2022-08-26T17:32:50.130Z,5.95
2022-08-26T17:35:19.777Z,5.70
2022-08-26T17:37:49.404Z,4.15
2022-08-26T17:40:25.212Z,8.27
2022-08-26T17:42:54.910Z,9.27
2022-08-26T17:45:24.934Z,4.82
2022-08-26T17:47:57.637Z,7.30
2022-08-26T17:50:27.261Z,11.27
2022-08-26T17:52:58.261Z,5.07
2022-08-26T17:55:28.058Z,5.70
2022-08-26T17:57:57.880Z,7.57
2022-08-26T18:00:29.205Z,5.53
2022-08-26T18:03:01.479Z,8.30
2022-08-26T18:05:31.272Z,5.50
2022-08-26T18:08:01.010Z,6.13
2022-08-26T18:10:31.422Z,9.30
2022-08-26T18:13:01.369Z,7.50
2022-08-26T18:15:31.096Z,5.10
2022-08-26T18:18:03.325Z,5.03
2022-08-26T18:20:32.945Z,10.40
2022-08-26T18:23:02.552Z,4.95
2022-08-26T18:25:32.197Z,7.95
2022-08-26T18:28:01.902Z,5.90
2022-08-26T18:30:31.569Z,4.65
2022-08-26T18:33:04.425Z,5.32
2022-08-26T18:35:34.112Z,7.97
2022-08-26T18:38:11.322Z,7.10
2022-08-26T18:40:42.280Z,4.07
2022-08-26T18:43:12.297Z,8.63
2022-08-26T18:45:41.972Z,3.85
2022-08-26T18:48:14.718Z,7.00
2022-08-26T18:50:47.330Z,4.90
2022-08-26T18:53:17.628Z,9.10
2022-08-26T18:55:47.294Z,6.93
2022-08-26T18:58:16.924Z,6.85
2022-08-26T19:00:46.557Z,8.40
2022-08-26T19:03:19.271Z,9.20
2022-08-26T19:05:49.102Z,8.80
2022-08-26T19:08:18.736Z,5.15
2022-08-26T19:10:48.449Z,5.63
2022-08-26T19:13:18.233Z,8.82
2022-08-26T19:15:48.474Z,5.03
2022-08-26T19:18:20.726Z,6.10
2022-08-26T19:20:50.598Z,9.25
2022-08-26T19:23:31.459Z,8.20
2022-08-26T19:26:02.099Z,6.35
2022-08-26T19:28:31.775Z,9.98
2022-08-26T19:31:01.691Z,7.55
2022-08-26T19:33:33.928Z,6.65
2022-08-26T19:36:06.318Z,8.98
2022-08-26T19:38:36.612Z,4.78
2022-08-26T19:41:06.368Z,6.60
2022-08-26T19:43:35.992Z,5.65
2022-08-26T19:46:12.837Z,8.68
2022-08-26T19:48:45.822Z,8.40
2022-08-26T19:51:16.363Z,4.80
2022-08-26T19:53:46.361Z,5.78
2022-08-26T19:56:16.536Z,12.30
2022-08-26T19:58:46.830Z,3.55
2022-08-26T20:01:17.940Z,8.30
2022-08-26T20:03:50.640Z,9.23
2022-08-26T20:06:21.209Z,8.32
2022-08-26T20:08:52.128Z,10.00
2022-08-26T20:11:26.046Z,7.55
2022-08-26T20:13:57.168Z,4.93
2022-08-26T20:16:26.816Z,6.45
2022-08-26T20:19:11.589Z,4.50
2022-08-26T20:21:43.150Z,8.27
2022-08-26T20:24:14.606Z,4.97
2022-08-26T20:26:46.393Z,6.13
2022-08-26T20:29:18.265Z,8.38
2022-08-26T20:31:48.150Z,6.80
2022-08-26T20:34:21.207Z,5.78
2022-08-26T20:36:52.244Z,9.82
2022-08-26T20:39:23.604Z,7.20
2022-08-26T20:41:53.302Z,4.80
2022-08-26T20:44:22.909Z,5.82
2022-08-26T20:46:52.549Z,8.38
2022-08-26T20:49:25.010Z,8.02
2022-08-26T20:51:54.756Z,6.47
2022-08-26T20:54:28.526Z,8.35
2022-08-26T20:59:28.708Z,5.97
2022-08-26T21:01:58.313Z,5.30
2022-08-26T21:04:30.623Z,8.63
2022-08-26T21:07:00.275Z,6.78
2022-08-26T21:09:30.279Z,8.52
2022-08-26T21:12:00.352Z,8.50
2022-08-26T21:14:29.943Z,6.00
2022-08-26T21:16:59.605Z,7.70
2022-08-26T21:19:31.860Z,9.82
2022-08-26T21:22:01.709Z,8.98
2022-08-26T21:24:31.385Z,7.72
2022-08-26T21:27:01.109Z,7.82
2022-08-26T21:29:30.730Z,7.90
2022-08-26T21:32:00.381Z,5.10
2022-08-26T21:34:32.625Z,10.40
2022-08-26T21:37:02.224Z,5.95
2022-08-26T21:39:38.570Z,8.35
2022-08-26T21:42:09.654Z,9.18
2022-08-26T21:44:39.276Z,7.15
2022-08-26T21:47:09.389Z,6.97
2022-08-26T21:49:44.123Z,6.53
2022-08-26T21:52:14.302Z,6.63
2022-08-26T21:54:49.313Z,7.32
2022-08-26T21:57:19.700Z,5.30
2022-08-26T21:59:49.292Z,7.85
2022-08-26T22:02:19.053Z,7.70
2022-08-26T22:04:51.597Z,5.97
2022-08-26T22:07:21.854Z,9.20
2022-08-26T22:09:51.500Z,6.80
2022-08-26T22:12:21.138Z,12.50
2022-08-26T22:14:50.748Z,8.57
2022-08-26T22:17:22.570Z,12.85
2022-08-26T22:19:55.172Z,13.27
2022-08-26T22:22:28.611Z,11.55
2022-08-26T22:24:58.222Z,11.93
2022-08-26T22:27:28.147Z,8.52
2022-08-26T22:29:57.856Z,11.32
2022-08-26T22:32:27.493Z,9.10
2022-08-26T22:34:59.697Z,11.32
2022-08-26T22:37:29.450Z,7.45
2022-08-26T22:39:59.193Z,11.35
2022-08-26T22:42:28.993Z,7.43
2022-08-26T22:44:58.638Z,14.80
2022-08-26T22:47:28.374Z,7.03
2022-08-26T22:50:01.609Z,7.72
2022-08-26T22:52:31.301Z,6.35
2022-08-26T22:55:00.927Z,13.32
2022-08-26T22:57:30.669Z,7.35
2022-08-26T23:00:00.565Z,5.05
2022-08-26T23:02:30.270Z,7.20
2022-08-26T23:05:02.505Z,7.93
2022-08-26T23:07:32.116Z,9.90
2022-08-26T23:10:01.625Z,7.22
2022-08-26T23:12:31.446Z,5.85
2022-08-26T23:15:01.300Z,8.45
2022-08-26T23:17:30.869Z,11.65
2022-08-26T23:20:02.998Z,8.18
2022-08-26T23:22:32.530Z,7.07
2022-08-26T23:25:04.534Z,7.82
2022-08-26T23:27:38.159Z,6.15
2022-08-26T23:30:08.709Z,7.82
2022-08-26T23:32:38.309Z,8.25
2022-08-26T23:35:09.508Z,6.82
2022-08-26T23:37:41.753Z,6.63
2022-08-26T23:40:14.539Z,8.88
2022-08-26T23:42:44.136Z,9.43
2022-08-26T23:45:18.377Z,6.35
2022-08-26T23:47:48.463Z,6.45
2022-08-26T23:50:21.067Z,7.82
2022-08-26T23:53:06.202Z,6.57
2022-08-26T23:55:36.472Z,7.55
2022-08-26T23:58:06.152Z,7.97
